Time;durP1;ratioP1;P1;durP2;ratioP2;P2;SDS_P1;SDS_P2;PMS_P1;PMS_P2;Temp;Humidity;BMP_temperature;BMP_pressure;BME280_temperature;BME280_humidity;BME280_pressure;Samples;Min_cycle;Max_cycle;Signal;HPM_P1;HPM_P2
2023/03/06 00:00:28;;;;;;;7.77;5.70;;;7.30;99.90;;;;;;5055830;28;20413;-72
2023/03/06 00:02:55;;;;;;;7.97;6.63;;;7.30;99.90;;;;;;5036346;28;20464;-72
2023/03/06 00:05:21;;;;;;;8.80;5.87;;;7.30;99.90;;;;;;5082029;28;20423;-72
2023/03/06 00:07:50;;;;;;;7.57;5.90;;;7.30;99.90;;;;;;5075039;28;20459;-72
2023/03/06 00:10:19;;;;;;;10.00;6.50;;;7.30;99.90;;;;;;5075780;28;20464;-73
2023/03/06 00:12:45;;;;;;;8.23;5.90;;;7.30;99.90;;;;;;5057069;28;20463;-72
2023/03/06 00:15:12;;;;;;;7.97;6.07;;;7.30;99.90;;;;;;5053157;28;20438;-72
2023/03/06 00:17:39;;;;;;;5.50;5.00;;;7.30;99.90;;;;;;5070397;28;20464;-72
2023/03/06 00:20:06;;;;;;;7.70;5.80;;;7.30;99.90;;;;;;5039884;28;20482;-73
2023/03/06 00:22:34;;;;;;;9.93;6.57;;;7.30;99.90;;;;;;5055301;28;20469;-72
2023/03/06 00:25:04;;;;;;;9.43;5.80;;;7.30;99.90;;;;;;5073031;28;20407;-72
2023/03/06 00:27:31;;;;;;;8.60;6.03;;;7.30;99.90;;;;;;5076116;28;20461;-72
2023/03/06 00:29:59;;;;;;;6.43;5.73;;;7.30;99.90;;;;;;5038225;28;20435;-72
2023/03/06 00:32:26;;;;;;;7.33;5.30;;;7.30;99.90;;;;;;5081553;28;20444;-71
2023/03/06 00:34:53;;;;;;;8.20;6.30;;;7.30;99.90;;;;;;5035129;28;20514;-72
2023/03/06 00:37:21;;;;;;;8.90;6.00;;;7.30;99.90;;;;;;5054043;28;20517;-72
2023/03/06 00:39:48;;;;;;;9.93;5.80;;;7.20;99.90;;;;;;5055704;28;20444;-72
2023/03/06 00:42:15;;;;;;;7.40;5.50;;;7.20;99.90;;;;;;5074284;28;20420;-71
2023/03/06 00:44:41;;;;;;;8.43;6.20;;;7.20;99.90;;;;;;5054846;28;20461;-72
2023/03/06 00:47:10;;;;;;;7.20;5.20;;;7.20;99.90;;;;;;5039297;28;20493;-72
2023/03/06 00:49:36;;;;;;;9.90;6.60;;;7.20;99.90;;;;;;5018249;28;20452;-71
2023/03/06 00:52:02;;;;;;;10.30;7.03;;;7.20;99.90;;;;;;5031637;28;20465;-72
2023/03/06 00:54:28;;;;;;;9.07;6.80;;;7.20;99.90;;;;;;5054797;28;20688;-71
2023/03/06 00:56:56;;;;;;;10.70;7.33;;;7.20;99.90;;;;;;5060223;28;20801;-72
2023/03/06 00:59:26;;;;;;;11.00;7.23;;;7.20;99.90;;;;;;5074878;28;20436;-72
2023/03/06 01:01:53;;;;;;;9.73;6.83;;;7.20;99.90;;;;;;5050151;28;20469;-72
2023/03/06 01:04:21;;;;;;;10.88;7.63;;;7.20;99.90;;;;;;5054654;28;20440;-72
2023/03/06 01:06:47;;;;;;;11.87;8.40;;;7.20;99.90;;;;;;5038170;28;20286;-72
2023/03/06 01:09:13;;;;;;;11.60;8.17;;;7.20;99.90;;;;;;5070279;28;20968;-72
2023/03/06 01:11:40;;;;;;;10.20;7.40;;;7.20;99.90;;;;;;5053053;28;20450;-72
2023/03/06 01:14:06;;;;;;;8.80;7.90;;;7.20;99.90;;;;;;5085220;28;20546;-72
2023/03/06 01:16:32;;;;;;;10.27;8.17;;;7.20;99.90;;;;;;5055985;28;20248;-72
2023/03/06 01:18:58;;;;;;;12.13;8.80;;;7.20;99.90;;;;;;5028071;28;20453;-72
2023/03/06 01:21:27;;;;;;;10.90;8.07;;;7.20;99.90;;;;;;5039868;28;20241;-72
2023/03/06 01:23:54;;;;;;;9.90;8.10;;;7.20;99.90;;;;;;5041586;28;20468;-72
2023/03/06 01:26:20;;;;;;;12.25;8.38;;;7.20;99.90;;;;;;5074535;28;20427;-72
2023/03/06 01:28:46;;;;;;;10.20;8.67;;;7.20;99.90;;;;;;5079571;28;20692;-71
2023/03/06 01:31:12;;;;;;;12.20;9.00;;;7.20;99.90;;;;;;5053860;28;20578;-71
2023/03/06 01:33:40;;;;;;;12.63;8.60;;;7.10;99.90;;;;;;5053541;28;20411;-71
2023/03/06 01:36:10;;;;;;;13.10;10.43;;;7.20;99.90;;;;;;5037179;28;21009;-72
2023/03/06 01:38:37;;;;;;;13.63;9.50;;;7.10;99.90;;;;;;5072188;28;20437;-72
2023/03/06 01:41:04;;;;;;;14.20;9.63;;;7.10;99.90;;;;;;5071799;28;20527;-72
2023/03/06 01:43:35;;;;;;;13.43;9.47;;;7.10;99.90;;;;;;5081222;28;20495;-71
2023/03/06 01:46:27;;;;;;;14.30;8.77;;;7.10;99.90;;;;;;5037937;28;20425;-72
2023/03/06 01:48:55;;;;;;;14.60;10.30;;;7.10;99.90;;;;;;5071619;28;20899;-72
2023/03/06 01:51:25;;;;;;;11.83;8.70;;;7.10;99.90;;;;;;5036918;28;20984;-71
2023/03/06 01:53:52;;;;;;;14.10;9.83;;;7.10;99.90;;;;;;5034743;28;20524;-71
2023/03/06 01:56:24;;;;;;;10.88;8.88;;;7.10;99.90;;;;;;5084934;28;20756;-71
2023/03/06 01:58:52;;;;;;;13.17;9.80;;;7.10;99.90;;;;;;5054423;28;20220;-72
2023/03/06 02:01:20;;;;;;;14.43;10.50;;;7.10;99.90;;;;;;5037533;28;21004;-72
2023/03/06 02:03:48;;;;;;;14.20;10.00;;;7.10;99.90;;;;;;5073429;28;20420;-71
2023/03/06 02:06:18;;;;;;;14.05;10.55;;;7.10;99.90;;;;;;5057317;28;20437;-72
2023/03/06 02:08:50;;;;;;;15.20;10.33;;;7.10;99.90;;;;;;5041318;28;20201;-72
2023/03/06 02:11:19;;;;;;;11.53;9.53;;;7.10;99.90;;;;;;5040765;28;20461;-72
2023/03/06 02:13:53;;;;;;;12.83;9.20;;;7.10;99.90;;;;;;5061972;28;20445;-71
2023/03/06 02:16:23;;;;;;;14.83;11.03;;;7.10;99.90;;;;;;5060490;28;20416;-71
2023/03/06 02:18:51;;;;;;;11.73;9.73;;;7.10;99.90;;;;;;5092577;28;20781;-72
2023/03/06 02:21:29;;;;;;;12.80;9.20;;;7.10;99.90;;;;;;5073265;28;20419;-72
2023/03/06 02:24:10;;;;;;;14.00;10.20;;;7.10;99.90;;;;;;5062124;28;20459;-71
2023/03/06 02:26:37;;;;;;;13.90;9.50;;;7.10;99.90;;;;;;5057193;28;20167;-71
2023/03/06 02:29:07;;;;;;;14.37;10.27;;;7.10;99.90;;;;;;5041490;28;20464;-72
2023/03/06 02:31:33;;;;;;;15.13;10.68;;;7.10;99.90;;;;;;5040822;28;20837;-72
2023/03/06 02:34:07;;;;;;;13.90;10.43;;;7.10;99.90;;;;;;5068462;28;20176;-72
2023/03/06 02:36:40;;;;;;;12.63;9.77;;;7.10;99.90;;;;;;5059709;28;20449;-71
2023/03/06 02:39:07;;;;;;;14.53;10.50;;;7.10;99.90;;;;;;5053641;28;20441;-71
2023/03/06 02:41:36;;;;;;;15.53;10.03;;;7.10;99.90;;;;;;5041771;28;20456;-72
2023/03/06 02:44:02;;;;;;;15.23;10.50;;;7.10;99.90;;;;;;5046731;28;20427;-72
2023/03/06 02:46:29;;;;;;;17.20;10.73;;;7.10;99.90;;;;;;5057543;28;20534;-72
2023/03/06 02:48:55;;;;;;;14.93;11.20;;;7.10;99.90;;;;;;5060532;28;20453;-72
2023/03/06 02:51:27;;;;;;;15.20;11.67;;;7.00;99.90;;;;;;5044203;28;20469;-72
2023/03/06 02:53:53;;;;;;;13.00;10.40;;;7.10;99.90;;;;;;5064473;28;20880;-72
2023/03/06 02:56:21;;;;;;;15.33;11.13;;;7.00;99.90;;;;;;5056937;28;20438;-71
2023/03/06 02:58:47;;;;;;;15.53;11.47;;;7.00;99.90;;;;;;5074552;28;20442;-71
2023/03/06 03:01:14;;;;;;;18.73;11.60;;;7.00;99.90;;;;;;5023875;28;20906;-72
2023/03/06 03:03:41;;;;;;;16.10;12.50;;;7.00;99.90;;;;;;5048556;28;20439;-72
2023/03/06 03:06:09;;;;;;;15.97;11.37;;;7.00;99.90;;;;;;5068053;28;20427;-72
2023/03/06 03:08:36;;;;;;;17.03;12.13;;;7.00;99.90;;;;;;5056097;28;20435;-72
2023/03/06 03:11:03;;;;;;;16.98;11.27;;;7.00;99.90;;;;;;5051813;28;20963;-71
2023/03/06 03:13:36;;;;;;;16.10;11.20;;;7.00;99.90;;;;;;5057277;28;20245;-72
2023/03/06 03:16:15;;;;;;;16.17;10.88;;;7.00;99.90;;;;;;5075728;28;20813;-71
2023/03/06 03:18:43;;;;;;;17.27;11.30;;;7.00;99.90;;;;;;5059851;28;20294;-71
2023/03/06 03:21:12;;;;;;;16.33;12.15;;;7.00;99.90;;;;;;5059917;28;20464;-71
2023/03/06 03:23:39;;;;;;;17.50;11.73;;;7.00;99.90;;;;;;5060869;28;20190;-72
2023/03/06 03:26:18;;;;;;;16.47;12.17;;;7.00;99.90;;;;;;5040044;28;20451;-72
2023/03/06 03:28:57;;;;;;;16.63;10.57;;;7.00;99.90;;;;;;5025357;28;20930;-72
2023/03/06 03:31:23;;;;;;;15.93;11.50;;;7.00;99.90;;;;;;5039697;28;20483;-71
2023/03/06 03:33:51;;;;;;;16.37;10.93;;;7.00;99.90;;;;;;5056138;28;20756;-71
2023/03/06 03:36:18;;;;;;;14.40;11.30;;;7.00;99.90;;;;;;5056043;28;20439;-72
2023/03/06 03:38:46;;;;;;;15.57;11.57;;;7.00;99.90;;;;;;5060082;28;20192;-72
2023/03/06 03:41:13;;;;;;;16.03;11.20;;;7.00;99.90;;;;;;5069322;28;20485;-71
2023/03/06 03:43:41;;;;;;;16.10;11.60;;;7.00;99.90;;;;;;5058403;28;20427;-72
2023/03/06 03:46:08;;;;;;;16.87;11.70;;;7.00;99.90;;;;;;5053039;28;20534;-72
2023/03/06 03:48:34;;;;;;;20.03;12.67;;;7.00;99.90;;;;;;5073190;28;20463;-72
2023/03/06 03:51:10;;;;;;;15.57;12.00;;;7.00;99.90;;;;;;5039160;28;20436;-72
2023/03/06 03:53:40;;;;;;;15.85;11.35;;;7.00;99.90;;;;;;5055982;28;20448;-72
2023/03/06 03:56:08;;;;;;;16.80;11.57;;;6.90;99.90;;;;;;5053010;28;20554;-71
2023/03/06 03:58:41;;;;;;;16.63;12.27;;;6.90;99.90;;;;;;5055611;28;20428;-71
2023/03/06 04:01:07;;;;;;;14.95;11.95;;;6.90;99.90;;;;;;5055669;28;20209;-71
2023/03/06 04:03:37;;;;;;;16.83;11.70;;;7.00;99.90;;;;;;5055924;28;20574;-72
2023/03/06 04:06:05;;;;;;;14.60;11.13;;;6.90;99.90;;;;;;5039323;28;20262;-71
2023/03/06 04:08:34;;;;;;;18.43;12.60;;;6.90;99.90;;;;;;5055494;28;20255;-71
2023/03/06 04:11:00;;;;;;;15.83;11.57;;;6.90;99.90;;;;;;5055146;28;20554;-72
2023/03/06 04:13:26;;;;;;;16.27;11.98;;;6.90;99.90;;;;;;5039316;28;20391;-72
2023/03/06 04:15:54;;;;;;;15.07;10.50;;;7.00;99.90;;;;;;5055816;28;20166;-72
2023/03/06 04:18:23;;;;;;;16.05;11.13;;;6.90;99.90;;;;;;5055252;28;20449;-71
2023/03/06 04:20:52;;;;;;;18.92;12.57;;;6.90;99.90;;;;;;5092263;28;20587;-72
2023/03/06 04:23:19;;;;;;;14.85;11.27;;;6.90;99.90;;;;;;5042929;28;20180;-72
2023/03/06 04:25:48;;;;;;;15.82;12.15;;;6.90;99.90;;;;;;5054836;28;20674;-71
2023/03/06 04:28:14;;;;;;;15.45;11.65;;;6.90;99.90;;;;;;5018583;28;20748;-72
2023/03/06 04:30:41;;;;;;;15.20;11.47;;;6.90;99.90;;;;;;5052824;28;20314;-71
2023/03/06 04:33:07;;;;;;;17.70;11.77;;;6.90;99.90;;;;;;5061314;28;20474;-72
2023/03/06 04:35:33;;;;;;;15.70;10.47;;;6.90;99.90;;;;;;5083199;28;20787;-72
2023/03/06 04:38:04;;;;;;;17.13;11.67;;;6.90;99.90;;;;;;5068157;28;20468;-71
2023/03/06 04:40:35;;;;;;;14.63;11.23;;;6.90;99.90;;;;;;5091501;28;20427;-71
2023/03/06 04:43:06;;;;;;;15.70;11.90;;;6.90;99.90;;;;;;5038780;28;20512;-72
2023/03/06 04:45:34;;;;;;;21.03;12.20;;;6.90;99.90;;;;;;5054985;28;20420;-71
2023/03/06 04:48:01;;;;;;;13.30;10.37;;;6.90;99.90;;;;;;5061640;28;20535;-71
2023/03/06 04:50:31;;;;;;;17.30;10.90;;;6.90;99.90;;;;;;5054719;28;20585;-72
2023/03/06 04:53:00;;;;;;;16.63;11.83;;;6.90;99.90;;;;;;5045117;28;20982;-72
2023/03/06 04:55:27;;;;;;;14.70;11.93;;;6.90;99.90;;;;;;5071508;28;20445;-72
2023/03/06 04:57:53;;;;;;;14.80;11.10;;;6.90;99.90;;;;;;5054343;28;20963;-72
2023/03/06 05:00:21;;;;;;;16.37;12.00;;;6.90;99.90;;;;;;5072065;28;20436;-71
2023/03/06 05:02:48;;;;;;;14.13;11.87;;;6.90;99.90;;;;;;5080524;23;20582;-74
2023/03/06 05:05:15;;;;;;;16.90;11.40;;;6.90;99.90;;;;;;5008000;28;20454;-74
2023/03/06 05:07:44;;;;;;;15.87;11.03;;;6.90;99.90;;;;;;5021430;28;20446;-74
2023/03/06 05:10:18;;;;;;;18.47;12.77;;;6.90;99.90;;;;;;4998399;28;20906;-72
2023/03/06 05:12:44;;;;;;;16.57;11.60;;;6.90;99.90;;;;;;5031958;28;20533;-74
2023/03/06 05:15:16;;;;;;;16.47;11.50;;;6.90;99.90;;;;;;5032068;28;20426;-74
2023/03/06 05:17:47;;;;;;;16.30;11.23;;;6.90;99.90;;;;;;5014281;28;20476;-73
2023/03/06 05:20:14;;;;;;;15.23;11.07;;;6.80;99.90;;;;;;5031286;28;20407;-74
2023/03/06 05:22:42;;;;;;;14.18;10.57;;;6.80;99.90;;;;;;5010984;28;20496;-74
2023/03/06 05:25:09;;;;;;;15.20;12.07;;;6.80;99.90;;;;;;5010145;28;20194;-75
2023/03/06 05:27:40;;;;;;;17.10;12.25;;;6.80;99.90;;;;;;5012964;28;20448;-74
2023/03/06 05:30:08;;;;;;;16.03;11.50;;;6.80;99.90;;;;;;4978791;28;20179;-74
2023/03/06 05:32:39;;;;;;;14.70;11.10;;;6.80;99.90;;;;;;5002919;28;20540;-74
2023/03/06 05:35:08;;;;;;;15.43;11.53;;;6.80;99.90;;;;;;4994345;28;20439;-72
2023/03/06 05:37:34;;;;;;;15.13;10.60;;;6.80;99.90;;;;;;5014034;28;20445;-74
2023/03/06 05:40:08;;;;;;;17.35;11.00;;;6.80;99.90;;;;;;5034408;28;20167;-74
2023/03/06 05:42:36;;;;;;;16.88;10.48;;;6.80;99.90;;;;;;5035569;28;20257;-74
2023/03/06 05:45:04;;;;;;;16.03;11.30;;;6.80;99.90;;;;;;5017513;28;20191;-73
2023/03/06 05:47:35;;;;;;;15.10;10.30;;;6.80;99.90;;;;;;5035582;28;20461;-74
2023/03/06 05:50:02;;;;;;;17.07;12.13;;;6.80;99.90;;;;;;5034172;28;20426;-73
2023/03/06 05:52:36;;;;;;;16.83;11.30;;;6.80;99.90;;;;;;5018115;28;20973;-74
2023/03/06 05:55:05;;;;;;;15.10;10.50;;;6.80;99.90;;;;;;5017352;28;20297;-74
2023/03/06 05:57:30;;;;;;;17.27;11.33;;;6.80;99.90;;;;;;4997998;28;20438;-73
2023/03/06 05:59:57;;;;;;;19.00;12.60;;;6.80;99.90;;;;;;5014561;28;20410;-74
2023/03/06 06:02:25;;;;;;;16.40;11.87;;;6.80;99.90;;;;;;5016437;28;20437;-74
2023/03/06 06:04:51;;;;;;;16.17;10.77;;;6.80;99.90;;;;;;4989478;28;20447;-75
2023/03/06 06:07:17;;;;;;;15.70;11.60;;;6.80;99.90;;;;;;5014821;28;20773;-73
2023/03/06 06:09:46;;;;;;;18.17;10.93;;;6.80;99.90;;;;;;5007946;28;20973;-74
2023/03/06 06:12:13;;;;;;;16.70;11.57;;;6.70;99.90;;;;;;4982983;28;20572;-73
2023/03/06 06:14:43;;;;;;;15.73;11.50;;;6.80;99.90;;;;;;5017870;28;20739;-73
2023/03/06 06:17:12;;;;;;;16.10;10.80;;;6.70;99.90;;;;;;5017736;28;20278;-74
2023/03/06 06:19:40;;;;;;;17.30;11.70;;;6.70;99.90;;;;;;5033719;28;20442;-74
2023/03/06 06:22:09;;;;;;;16.87;11.33;;;6.80;99.90;;;;;;5000778;28;20798;-74
2023/03/06 06:24:38;;;;;;;20.93;12.20;;;6.70;99.90;;;;;;5001038;28;20539;-73
2023/03/06 06:27:07;;;;;;;18.70;10.97;;;6.80;99.90;;;;;;5000960;28;20832;-73
2023/03/06 06:29:35;;;;;;;14.50;10.30;;;6.70;99.90;;;;;;5034294;28;20822;-73
2023/03/06 06:32:03;;;;;;;19.60;12.75;;;6.70;99.90;;;;;;4984129;28;20906;-73
2023/03/06 06:34:35;;;;;;;15.10;11.25;;;6.70;99.90;;;;;;4999914;28;20171;-73
2023/03/06 06:37:01;;;;;;;19.00;11.83;;;6.70;99.90;;;;;;5016787;28;20201;-72
2023/03/06 06:39:32;;;;;;;18.90;12.30;;;6.70;99.90;;;;;;5016922;28;20496;-73
2023/03/06 06:42:01;;;;;;;19.30;12.75;;;6.70;99.90;;;;;;5032758;28;20441;-72
2023/03/06 06:44:26;;;;;;;18.80;11.70;;;6.70;99.90;;;;;;5033710;28;20193;-73
2023/03/06 06:46:57;;;;;;;17.73;11.27;;;6.70;99.90;;;;;;5000148;28;20191;-73
2023/03/06 06:49:25;;;;;;;17.03;11.97;;;6.70;99.90;;;;;;5032365;28;20449;-73
2023/03/06 06:51:56;;;;;;;24.63;11.60;;;6.70;99.90;;;;;;5033967;28;20446;-73
2023/03/06 06:54:24;;;;;;;17.27;11.88;;;6.70;99.90;;;;;;5033532;28;20203;-73
2023/03/06 06:56:51;;;;;;;17.77;12.10;;;6.70;99.90;;;;;;5034233;28;20638;-73
2023/03/06 06:59:17;;;;;;;18.67;12.27;;;6.70;99.90;;;;;;5016519;28;20441;-74
2023/03/06 07:01:45;;;;;;;19.48;11.60;;;6.70;99.90;;;;;;5034092;28;20518;-74
2023/03/06 07:04:12;;;;;;;15.20;10.93;;;6.70;99.90;;;;;;5015266;28;20206;-74
2023/03/06 07:06:41;;;;;;;20.60;13.37;;;6.70;99.90;;;;;;4996526;28;20413;-74
2023/03/06 07:09:10;;;;;;;20.13;13.13;;;6.70;99.90;;;;;;5014576;28;20865;-75
2023/03/06 07:11:38;;;;;;;17.60;12.77;;;6.70;99.90;;;;;;4996319;28;20246;-74
2023/03/06 07:14:06;;;;;;;18.67;12.48;;;6.70;99.90;;;;;;5031168;28;20175;-74
2023/03/06 07:16:35;;;;;;;20.92;13.27;;;6.60;99.90;;;;;;5016262;28;20179;-74
2023/03/06 07:19:01;;;;;;;21.02;13.93;;;6.60;99.90;;;;;;5016407;28;20614;-74
2023/03/06 07:21:29;;;;;;;22.20;13.93;;;6.60;99.90;;;;;;4999564;28;20251;-74
2023/03/06 07:23:56;;;;;;;20.97;14.50;;;6.60;99.90;;;;;;5015835;28;20488;-74
2023/03/06 07:26:26;;;;;;;21.40;14.07;;;6.60;99.90;;;;;;5016070;28;20425;-75
2023/03/06 07:28:55;;;;;;;19.53;13.30;;;6.60;99.90;;;;;;5012272;28;20998;-74
2023/03/06 07:31:24;;;;;;;21.70;12.80;;;6.60;99.90;;;;;;4985755;28;20592;-75
2023/03/06 07:33:53;;;;;;;21.13;12.60;;;6.60;99.90;;;;;;5015818;28;20411;-74
2023/03/06 07:36:21;;;;;;;21.90;13.70;;;6.60;99.90;;;;;;4998025;28;20467;-75
2023/03/06 07:38:49;;;;;;;20.58;12.30;;;6.60;99.90;;;;;;4999910;28;20444;-74
2023/03/06 07:41:18;;;;;;;20.73;12.43;;;6.60;99.90;;;;;;5007821;28;20242;-74
2023/03/06 07:43:45;;;;;;;23.83;13.00;;;6.60;99.90;;;;;;5028174;28;20456;-74
2023/03/06 07:46:16;;;;;;;24.27;14.63;;;6.60;99.90;;;;;;5014719;28;20202;-74
2023/03/06 07:48:45;;;;;;;22.13;13.80;;;6.60;99.90;;;;;;5015569;28;20235;-74
2023/03/06 07:51:16;;;;;;;25.17;14.10;;;6.60;99.90;;;;;;5033095;28;20790;-75
2023/03/06 07:53:43;;;;;;;22.90;13.70;;;6.60;99.90;;;;;;4999028;28;20778;-75
2023/03/06 07:56:12;;;;;;;20.27;13.20;;;6.60;99.90;;;;;;4998338;28;20445;-74
2023/03/06 07:58:41;;;;;;;23.50;14.80;;;6.60;99.90;;;;;;4999297;28;20549;-74
2023/03/06 08:01:13;;;;;;;22.17;13.43;;;6.50;99.90;;;;;;5032312;28;20427;-74
2023/03/06 08:03:39;;;;;;;22.45;13.40;;;6.50;99.90;;;;;;5015175;28;20199;-74
2023/03/06 08:06:12;;;;;;;22.13;14.40;;;6.60;99.90;;;;;;5015029;28;20178;-75
2023/03/06 08:08:45;;;;;;;26.52;13.90;;;6.50;99.90;;;;;;5031658;28;20448;-74
2023/03/06 08:11:14;;;;;;;24.55;15.80;;;6.50;99.90;;;;;;4998091;28;20186;-75
2023/03/06 08:13:44;;;;;;;26.40;15.27;;;6.60;99.90;;;;;;5031159;28;20183;-75
2023/03/06 08:16:12;;;;;;;24.20;15.05;;;6.50;99.90;;;;;;4998605;28;20453;-75
2023/03/06 08:18:38;;;;;;;23.60;13.82;;;6.50;99.90;;;;;;5031553;28;20303;-75
2023/03/06 08:21:08;;;;;;;22.00;14.00;;;6.50;99.90;;;;;;4998672;28;20272;-74
2023/03/06 08:23:35;;;;;;;28.27;16.13;;;6.50;99.90;;;;;;4994708;28;20445;-74
2023/03/06 08:26:04;;;;;;;28.45;16.73;;;6.50;99.90;;;;;;5014643;28;20176;-74
2023/03/06 08:28:30;;;;;;;23.95;14.35;;;6.50;99.90;;;;;;5024574;28;20199;-74
2023/03/06 08:30:57;;;;;;;23.40;14.57;;;6.50;99.90;;;;;;4970790;28;20236;-74
2023/03/06 08:33:26;;;;;;;25.87;15.60;;;6.50;99.90;;;;;;4997839;28;20215;-74
2023/03/06 08:35:53;;;;;;;27.85;16.33;;;6.50;99.90;;;;;;5014921;28;20903;-73
2023/03/06 08:38:21;;;;;;;28.30;17.40;;;6.50;99.90;;;;;;5000271;28;20214;-74
2023/03/06 08:40:49;;;;;;;31.80;19.60;;;6.50;99.90;;;;;;5000425;28;20847;-74
2023/03/06 08:43:15;;;;;;;30.37;17.10;;;6.50;99.90;;;;;;5030949;28;20193;-74
2023/03/06 08:45:42;;;;;;;28.10;17.43;;;6.50;99.90;;;;;;5021358;28;20445;-74
2023/03/06 08:48:08;;;;;;;34.50;19.25;;;6.50;99.90;;;;;;4994940;28;20449;-74
2023/03/06 08:50:34;;;;;;;31.67;19.83;;;6.50;99.90;;;;;;4979167;28;20178;-74
2023/03/06 08:53:00;;;;;;;27.00;17.80;;;6.50;99.90;;;;;;5004883;28;20203;-74
2023/03/06 08:55:29;;;;;;;29.38;18.60;;;6.50;99.90;;;;;;4998502;28;20524;-75
2023/03/06 08:57:56;;;;;;;34.67;19.70;;;6.50;99.90;;;;;;5031975;28;20384;-74
2023/03/06 09:00:24;;;;;;;34.00;19.70;;;6.50;99.90;;;;;;5030562;28;20425;-74
2023/03/06 09:02:52;;;;;;;32.60;19.52;;;6.50;99.90;;;;;;5030056;28;20483;-74
2023/03/06 09:05:21;;;;;;;33.30;18.10;;;6.50;99.90;;;;;;5004290;28;20204;-74
2023/03/06 09:07:48;;;;;;;38.83;21.10;;;6.50;99.90;;;;;;4996547;28;20903;-74
2023/03/06 09:10:16;;;;;;;30.80;19.90;;;6.50;99.90;;;;;;5030659;28;20957;-74
2023/03/06 09:12:43;;;;;;;31.13;19.42;;;6.50;99.90;;;;;;5014340;28;20515;-74
2023/03/06 09:15:13;;;;;;;31.25;20.13;;;6.50;99.90;;;;;;5018548;28;20261;-75
2023/03/06 09:17:41;;;;;;;30.38;19.13;;;6.60;99.90;;;;;;5014207;28;20217;-74
2023/03/06 09:20:09;;;;;;;33.37;19.63;;;6.50;99.90;;;;;;4982958;28;20545;-74
2023/03/06 09:22:36;;;;;;;28.57;17.90;;;6.50;99.90;;;;;;5005372;28;20459;-74
2023/03/06 09:25:04;;;;;;;32.20;19.35;;;6.60;99.90;;;;;;5036041;28;20439;-74
2023/03/06 09:27:32;;;;;;;30.27;19.20;;;6.60;99.90;;;;;;5018064;28;20556;-74
2023/03/06 09:29:58;;;;;;;33.60;20.40;;;6.60;99.90;;;;;;5001885;28;20449;-74
2023/03/06 09:32:25;;;;;;;29.92;20.45;;;6.50;99.90;;;;;;5017737;28;20479;-74
2023/03/06 09:34:53;;;;;;;34.40;19.90;;;6.50;99.90;;;;;;5002212;28;20669;-74
2023/03/06 09:37:24;;;;;;;28.20;18.10;;;6.50;99.90;;;;;;5034694;28;20780;-75
2023/03/06 09:39:50;;;;;;;34.03;20.48;;;6.50;99.90;;;;;;5035134;28;20394;-74
2023/03/06 09:42:22;;;;;;;33.40;19.30;;;6.50;99.90;;;;;;5001639;28;20202;-75
2023/03/06 09:45:00;;;;;;;30.27;18.90;;;6.60;99.90;;;;;;5035840;28;20768;-74
2023/03/06 09:47:55;;;;;;;36.45;19.35;;;6.50;99.90;;;;;;5018058;28;20180;-74
2023/03/06 09:50:31;;;;;;;26.33;17.80;;;6.60;99.90;;;;;;5006045;28;20198;-74
2023/03/06 09:53:18;;;;;;;28.90;18.63;;;6.50;99.90;;;;;;5016471;28;20978;-74
2023/03/06 09:55:57;;;;;;;31.30;18.42;;;6.50;99.90;;;;;;5001628;28;20937;-74
2023/03/06 09:58:27;;;;;;;31.03;18.33;;;6.50;99.90;;;;;;5035102;28;20251;-75
2023/03/06 10:01:20;;;;;;;28.58;18.30;;;6.50;99.90;;;;;;5033840;28;20429;-75
2023/03/06 10:04:08;;;;;;;30.40;18.07;;;6.50;99.90;;;;;;5035218;28;20269;-74
2023/03/06 10:06:47;;;;;;;27.83;17.37;;;6.50;99.90;;;;;;4985856;28;20433;-74
2023/03/06 10:09:23;;;;;;;26.07;17.10;;;6.50;99.90;;;;;;5017565;28;20428;-75
2023/03/06 10:12:28;;;;;;;30.33;17.90;;;6.50;99.90;;;;;;5016911;28;20465;-74
2023/03/06 10:15:21;;;;;;;27.00;16.55;;;6.50;99.90;;;;;;5000700;28;20479;-74
2023/03/06 10:17:47;;;;;;;28.53;18.10;;;6.50;99.90;;;;;;5017506;28;20207;-74
2023/03/06 10:20:24;;;;;;;27.30;16.10;;;6.50;99.90;;;;;;5018019;28;20907;-74
2023/03/06 10:23:03;;;;;;;28.92;16.40;;;6.50;99.90;;;;;;5012075;28;20455;-74
2023/03/06 10:26:07;;;;;;;26.20;16.10;;;6.50;99.90;;;;;;4997493;28;20171;-75
2023/03/06 10:28:45;;;;;;;25.60;16.85;;;6.50;99.90;;;;;;4975500;28;20501;-74
2023/03/06 10:31:26;;;;;;;26.87;15.53;;;6.50;99.90;;;;;;5013869;28;20667;-74
2023/03/06 10:34:22;;;;;;;26.48;15.73;;;6.50;99.90;;;;;;5014042;28;20456;-75
2023/03/06 10:36:51;;;;;;;25.45;15.95;;;6.50;99.90;;;;;;5028911;28;20232;-75
2023/03/06 10:39:19;;;;;;;24.60;13.97;;;6.50;99.90;;;;;;5017501;28;20686;-74
2023/03/06 10:41:46;;;;;;;26.00;16.23;;;6.60;99.90;;;;;;5016742;28;20439;-75
2023/03/06 10:44:12;;;;;;;23.63;14.57;;;6.60;99.90;;;;;;5000561;28;20447;-75
2023/03/06 10:46:41;;;;;;;23.60;14.25;;;6.50;99.90;;;;;;5016383;28;20457;-75
2023/03/06 10:49:30;;;;;;;23.03;14.00;;;6.60;99.90;;;;;;5000363;28;20206;-74
2023/03/06 10:52:12;;;;;;;21.80;13.90;;;6.60;99.90;;;;;;4997606;28;21087;-75
2023/03/06 10:54:42;;;;;;;22.03;13.30;;;6.60;99.90;;;;;;4997294;28;20549;-74
2023/03/06 10:57:27;;;;;;;24.33;13.80;;;6.60;99.90;;;;;;5014805;28;20434;-75
2023/03/06 11:00:22;;;;;;;22.83;13.68;;;6.60;99.90;;;;;;5012329;28;20423;-74
2023/03/06 11:03:22;;;;;;;20.42;13.57;;;6.60;99.90;;;;;;4996287;28;20196;-74
2023/03/06 11:06:01;;;;;;;23.42;14.73;;;6.60;99.90;;;;;;5016201;28;20193;-75
2023/03/06 11:08:28;;;;;;;23.38;14.65;;;6.60;99.90;;;;;;5015742;28;20216;-73
2023/03/06 11:11:04;;;;;;;19.03;13.23;;;6.60;99.90;;;;;;5012636;28;20244;-72
2023/03/06 11:13:36;;;;;;;20.13;12.50;;;6.60;99.90;;;;;;5014340;28;20450;-75
2023/03/06 11:16:17;;;;;;;20.13;13.33;;;6.60;99.90;;;;;;4996897;28;20419;-74
2023/03/06 11:18:58;;;;;;;23.27;13.73;;;6.60;99.90;;;;;;5013129;28;20430;-74
2023/03/06 11:21:30;;;;;;;20.83;13.23;;;6.60;99.90;;;;;;4996992;28;20425;-74
2023/03/06 11:24:15;;;;;;;22.50;11.80;;;6.60;99.90;;;;;;4997724;28;20860;-74
2023/03/06 11:26:57;;;;;;;19.35;12.40;;;6.60;99.90;;;;;;4999754;28;20461;-74
2023/03/06 11:29:42;;;;;;;22.90;12.70;;;6.60;99.90;;;;;;4984099;28;20230;-75
2023/03/06 11:32:25;;;;;;;21.60;14.70;;;6.60;99.90;;;;;;5033231;28;20641;-74
2023/03/06 11:35:07;;;;;;;24.80;14.20;;;6.60;99.90;;;;;;4983947;28;20418;-74
2023/03/06 11:37:52;;;;;;;18.17;12.27;;;6.60;99.90;;;;;;5031243;28;20888;-74
2023/03/06 11:40:27;;;;;;;20.52;13.35;;;6.60;99.90;;;;;;5015973;28;20621;-74
2023/03/06 11:43:18;;;;;;;21.13;12.27;;;6.70;99.90;;;;;;5001659;28;20653;-74
2023/03/06 11:45:50;;;;;;;19.73;12.20;;;6.70;99.90;;;;;;4996584;28;20437;-73
2023/03/06 11:48:25;;;;;;;18.47;12.47;;;6.70;99.90;;;;;;5013631;28;20821;-74
2023/03/06 11:51:16;;;;;;;23.50;14.60;;;6.70;99.90;;;;;;4996112;28;20592;-74
2023/03/06 11:53:44;;;;;;;24.33;13.07;;;6.70;99.90;;;;;;5026488;28;20514;-74
2023/03/06 11:56:28;;;;;;;22.40;13.20;;;6.80;99.90;;;;;;5015767;28;20207;-74
2023/03/06 11:59:16;;;;;;;22.83;13.50;;;6.80;99.90;;;;;;4999414;28;20206;-74
2023/03/06 12:02:17;;;;;;;24.52;13.65;;;6.80;99.90;;;;;;4983872;28;20500;-74
2023/03/06 12:05:22;;;;;;;21.73;12.77;;;6.80;99.90;;;;;;5011940;28;20195;-74
2023/03/06 12:07:51;;;;;;;22.00;13.77;;;6.80;99.90;;;;;;4979686;28;20616;-74
2023/03/06 12:10:28;;;;;;;20.80;12.65;;;6.80;99.90;;;;;;4995841;28;20429;-75
2023/03/06 12:13:23;;;;;;;20.10;12.50;;;6.80;99.90;;;;;;4982275;28;20232;-74
2023/03/06 12:16:19;;;;;;;19.80;13.87;;;6.90;99.90;;;;;;5022493;28;20499;-75
2023/03/06 12:19:10;;;;;;;16.60;12.23;;;6.90;99.90;;;;;;5009762;28;20460;-74
2023/03/06 12:21:50;;;;;;;19.45;12.65;;;6.90;99.90;;;;;;5032541;28;20435;-74
2023/03/06 12:24:30;;;;;;;18.10;12.30;;;7.00;99.90;;;;;;5015235;28;20190;-74
2023/03/06 12:26:59;;;;;;;21.40;13.27;;;7.00;99.90;;;;;;5014427;28;20430;-74
2023/03/06 12:29:39;;;;;;;17.52;11.68;;;7.00;99.90;;;;;;4998457;28;20466;-74
2023/03/06 12:32:29;;;;;;;16.40;11.20;;;7.00;99.90;;;;;;5012975;28;20187;-74
2023/03/06 12:35:16;;;;;;;17.30;12.17;;;7.00;99.90;;;;;;5012832;28;20210;-74
2023/03/06 12:38:16;;;;;;;17.07;10.80;;;7.10;99.90;;;;;;5011614;28;20492;-74
2023/03/06 12:41:08;;;;;;;17.23;9.70;;;7.00;99.90;;;;;;4995340;28;20447;-74
2023/03/06 12:43:57;;;;;;;14.60;9.67;;;7.00;99.90;;;;;;5011577;28;20418;-75
2023/03/06 12:46:25;;;;;;;18.50;10.07;;;7.00;99.90;;;;;;5012617;28;20534;-74
2023/03/06 12:49:03;;;;;;;14.40;9.33;;;7.00;99.90;;;;;;4995147;28;20528;-74
2023/03/06 12:51:38;;;;;;;12.20;8.23;;;7.10;99.90;;;;;;5014266;28;20466;-74
2023/03/06 12:54:11;;;;;;;13.02;9.18;;;7.10;99.90;;;;;;5014962;28;20418;-74
2023/03/06 12:56:38;;;;;;;16.07;10.77;;;7.10;99.90;;;;;;5014147;28;20196;-74
2023/03/06 12:59:04;;;;;;;13.97;8.93;;;7.10;99.90;;;;;;5011720;28;20453;-74
2023/03/06 13:01:55;;;;;;;14.00;9.53;;;7.10;99.90;;;;;;4978903;28;20468;-74